sensor_id;sensor_type;location;lat;lon;timestamp;temperature;humidity
19755;DHT22;10036;47.812;9.274;2023-03-14T00:00:29;9.80;99.90
19755;DHT22;10036;47.812;9.274;2023-03-14T00:02:55;9.60;99.90
19755;DHT22;10036;47.812;9.274;2023-03-14T00:05:22;9.60;99.90
19755;DHT22;10036;47.812;9.274;2023-03-14T00:07:49;9.60;99.90
19755;DHT22;10036;47.812;9.274;2023-03-14T00:10:16;9.50;99.90
19755;DHT22;10036;47.812;9.274;2023-03-14T00:12:44;9.50;99.90
19755;DHT22;10036;47.812;9.274;2023-03-14T00:15:11;9.50;99.90
19755;DHT22;10036;47.812;9.274;2023-03-14T00:17:42;9.40;99.90
19755;DHT22;10036;47.812;9.274;2023-03-14T00:20:10;9.50;99.90
19755;DHT22;10036;47.812;9.274;2023-03-14T00:22:38;9.40;99.90
19755;DHT22;10036;47.812;9.274;2023-03-14T00:25:06;9.40;99.90
19755;DHT22;10036;47.812;9.274;2023-03-14T00:27:33;9.40;99.90
19755;DHT22;10036;47.812;9.274;2023-03-14T00:30:00;9.40;99.90
19755;DHT22;10036;47.812;9.274;2023-03-14T00:32:28;9.40;99.90
19755;DHT22;10036;47.812;9.274;2023-03-14T00:34:56;9.40;99.90
19755;DHT22;10036;47.812;9.274;2023-03-14T00:37:23;9.40;99.90
19755;DHT22;10036;47.812;9.274;2023-03-14T00:39:51;9.40;99.90
19755;DHT22;10036;47.812;9.274;2023-03-14T00:42:18;9.40;99.90
19755;DHT22;10036;47.812;9.274;2023-03-14T00:44:45;9.40;99.90
19755;DHT22;10036;47.812;9.274;2023-03-14T00:47:12;9.50;99.90
19755;DHT22;10036;47.812;9.274;2023-03-14T00:49:38;9.50;99.90
19755;DHT22;10036;47.812;9.274;2023-03-14T00:52:07;9.50;99.90
19755;DHT22;10036;47.812;9.274;2023-03-14T00:54:33;9.50;99.90
19755;DHT22;10036;47.812;9.274;2023-03-14T00:57:00;9.50;99.90
19755;DHT22;10036;47.812;9.274;2023-03-14T00:59:27;9.50;99.90
19755;DHT22;10036;47.812;9.274;2023-03-14T01:01:54;9.50;99.90
19755;DHT22;10036;47.812;9.274;2023-03-14T01:04:21;9.50;99.90
19755;DHT22;10036;47.812;9.274;2023-03-14T01:06:48;9.50;99.90
19755;DHT22;10036;47.812;9.274;2023-03-14T01:09:16;9.40;99.90
19755;DHT22;10036;47.812;9.274;2023-03-14T01:11:44;9.30;99.90
19755;DHT22;10036;47.812;9.274;2023-03-14T01:14:12;9.30;99.90
19755;DHT22;10036;47.812;9.274;2023-03-14T01:16:39;9.30;99.90
19755;DHT22;10036;47.812;9.274;2023-03-14T01:19:06;9.20;99.90
19755;DHT22;10036;47.812;9.274;2023-03-14T01:21:34;9.20;99.90
19755;DHT22;10036;47.812;9.274;2023-03-14T01:24:03;9.20;99.90
19755;DHT22;10036;47.812;9.274;2023-03-14T01:26:33;9.20;99.90
19755;DHT22;10036;47.812;9.274;2023-03-14T01:29:01;9.20;99.90
19755;DHT22;10036;47.812;9.274;2023-03-14T01:31:28;9.20;99.90
19755;DHT22;10036;47.812;9.274;2023-03-14T01:33:55;9.10;99.90
19755;DHT22;10036;47.812;9.274;2023-03-14T01:36:22;9.10;99.90
19755;DHT22;10036;47.812;9.274;2023-03-14T01:38:48;8.90;99.90
19755;DHT22;10036;47.812;9.274;2023-03-14T01:41:17;9.00;99.90
19755;DHT22;10036;47.812;9.274;2023-03-14T01:43:47;9.00;99.90
19755;DHT22;10036;47.812;9.274;2023-03-14T01:46:38;9.00;99.90
19755;DHT22;10036;47.812;9.274;2023-03-14T01:49:11;8.90;99.90
19755;DHT22;10036;47.812;9.274;2023-03-14T01:51:44;8.90;99.90
19755;DHT22;10036;47.812;9.274;2023-03-14T01:54:16;9.00;99.90
19755;DHT22;10036;47.812;9.274;2023-03-14T01:56:48;8.90;99.90
19755;DHT22;10036;47.812;9.274;2023-03-14T01:59:18;8.90;99.90
19755;DHT22;10036;47.812;9.274;2023-03-14T02:01:46;8.90;99.90
19755;DHT22;10036;47.812;9.274;2023-03-14T02:04:14;8.90;99.90
19755;DHT22;10036;47.812;9.274;2023-03-14T02:06:50;8.90;99.90
19755;DHT22;10036;47.812;9.274;2023-03-14T02:09:18;8.90;99.90
19755;DHT22;10036;47.812;9.274;2023-03-14T02:11:46;8.90;99.90
19755;DHT22;10036;47.812;9.274;2023-03-14T02:14:22;8.90;99.90
19755;DHT22;10036;47.812;9.274;2023-03-14T02:16:51;8.90;99.90
19755;DHT22;10036;47.812;9.274;2023-03-14T02:19:22;8.80;99.90
19755;DHT22;10036;47.812;9.274;2023-03-14T02:21:57;8.80;99.90
19755;DHT22;10036;47.812;9.274;2023-03-14T02:24:35;8.80;99.90
19755;DHT22;10036;47.812;9.274;2023-03-14T02:27:08;8.80;99.90
19755;DHT22;10036;47.812;9.274;2023-03-14T02:29:38;8.70;99.90
19755;DHT22;10036;47.812;9.274;2023-03-14T02:32:06;8.70;99.90
19755;DHT22;10036;47.812;9.274;2023-03-14T02:34:34;8.70;99.90
19755;DHT22;10036;47.812;9.274;2023-03-14T02:37:02;8.70;99.90
19755;DHT22;10036;47.812;9.274;2023-03-14T02:39:35;8.60;99.90
19755;DHT22;10036;47.812;9.274;2023-03-14T02:42:03;8.70;99.90
19755;DHT22;10036;47.812;9.274;2023-03-14T02:44:31;8.60;99.90
19755;DHT22;10036;47.812;9.274;2023-03-14T02:46:58;8.60;99.90
19755;DHT22;10036;47.812;9.274;2023-03-14T02:49:27;8.60;99.90
19755;DHT22;10036;47.812;9.274;2023-03-14T02:51:56;8.60;99.90
19755;DHT22;10036;47.812;9.274;2023-03-14T02:54:23;8.70;99.90
19755;DHT22;10036;47.812;9.274;2023-03-14T02:56:50;8.70;99.90
19755;DHT22;10036;47.812;9.274;2023-03-14T02:59:17;8.70;99.90
19755;DHT22;10036;47.812;9.274;2023-03-14T03:01:45;8.60;99.90
19755;DHT22;10036;47.812;9.274;2023-03-14T03:04:12;8.60;99.90
19755;DHT22;10036;47.812;9.274;2023-03-14T03:06:39;8.60;99.90
19755;DHT22;10036;47.812;9.274;2023-03-14T03:09:05;8.60;99.90
19755;DHT22;10036;47.812;9.274;2023-03-14T03:11:32;8.60;99.90
19755;DHT22;10036;47.812;9.274;2023-03-14T03:13:59;8.60;99.90
19755;DHT22;10036;47.812;9.274;2023-03-14T03:16:26;8.50;99.90
19755;DHT22;10036;47.812;9.274;2023-03-14T03:18:54;8.60;99.90
19755;DHT22;10036;47.812;9.274;2023-03-14T03:21:21;8.50;99.90
19755;DHT22;10036;47.812;9.274;2023-03-14T03:23:49;8.50;99.90
19755;DHT22;10036;47.812;9.274;2023-03-14T03:26:17;8.40;99.90
19755;DHT22;10036;47.812;9.274;2023-03-14T03:28:43;8.40;99.90
19755;DHT22;10036;47.812;9.274;2023-03-14T03:31:11;8.40;99.90
19755;DHT22;10036;47.812;9.274;2023-03-14T03:33:38;8.40;99.90
19755;DHT22;10036;47.812;9.274;2023-03-14T03:36:08;8.40;99.90
19755;DHT22;10036;47.812;9.274;2023-03-14T03:38:35;8.40;99.90
19755;DHT22;10036;47.812;9.274;2023-03-14T03:41:03;8.40;99.90
19755;DHT22;10036;47.812;9.274;2023-03-14T03:43:30;8.40;99.90
19755;DHT22;10036;47.812;9.274;2023-03-14T03:45:57;8.40;99.90
19755;DHT22;10036;47.812;9.274;2023-03-14T03:48:24;8.40;99.90
19755;DHT22;10036;47.812;9.274;2023-03-14T03:50:51;8.40;99.90
19755;DHT22;10036;47.812;9.274;2023-03-14T03:53:19;8.40;99.90
19755;DHT22;10036;47.812;9.274;2023-03-14T03:55:46;8.30;99.90
19755;DHT22;10036;47.812;9.274;2023-03-14T03:58:12;8.30;99.90
19755;DHT22;10036;47.812;9.274;2023-03-14T04:00:40;8.30;99.90
19755;DHT22;10036;47.812;9.274;2023-03-14T04:03:07;8.30;99.90
19755;DHT22;10036;47.812;9.274;2023-03-14T04:05:34;8.30;99.90
19755;DHT22;10036;47.812;9.274;2023-03-14T04:08:01;8.30;99.90
19755;DHT22;10036;47.812;9.274;2023-03-14T04:10:29;8.30;99.90
19755;DHT22;10036;47.812;9.274;2023-03-14T04:12:56;8.30;99.90
19755;DHT22;10036;47.812;9.274;2023-03-14T04:15:23;8.30;99.90
19755;DHT22;10036;47.812;9.274;2023-03-14T04:17:50;8.30;99.90
19755;DHT22;10036;47.812;9.274;2023-03-14T04:20:17;8.30;99.90
19755;DHT22;10036;47.812;9.274;2023-03-14T04:22:44;8.30;99.90
19755;DHT22;10036;47.812;9.274;2023-03-14T04:25:11;8.20;99.90
19755;DHT22;10036;47.812;9.274;2023-03-14T04:27:39;8.30;99.90
19755;DHT22;10036;47.812;9.274;2023-03-14T04:30:07;8.20;99.90
19755;DHT22;10036;47.812;9.274;2023-03-14T04:32:34;8.20;99.90
19755;DHT22;10036;47.812;9.274;2023-03-14T04:35:01;8.20;99.90
19755;DHT22;10036;47.812;9.274;2023-03-14T04:37:28;8.20;99.90
19755;DHT22;10036;47.812;9.274;2023-03-14T04:39:54;8.20;99.90
19755;DHT22;10036;47.812;9.274;2023-03-14T04:42:21;8.30;99.90
19755;DHT22;10036;47.812;9.274;2023-03-14T04:44:49;8.20;99.90
19755;DHT22;10036;47.812;9.274;2023-03-14T04:47:16;8.20;99.90
19755;DHT22;10036;47.812;9.274;2023-03-14T04:49:43;8.20;99.90
19755;DHT22;10036;47.812;9.274;2023-03-14T04:52:10;8.20;99.90
19755;DHT22;10036;47.812;9.274;2023-03-14T04:54:37;8.20;99.90
19755;DHT22;10036;47.812;9.274;2023-03-14T04:57:03;8.10;99.90
19755;DHT22;10036;47.812;9.274;2023-03-14T04:59:30;8.20;99.90
19755;DHT22;10036;47.812;9.274;2023-03-14T05:01:58;8.10;99.90
19755;DHT22;10036;47.812;9.274;2023-03-14T05:04:25;8.20;99.90
19755;DHT22;10036;47.812;9.274;2023-03-14T05:06:52;8.20;99.90
19755;DHT22;10036;47.812;9.274;2023-03-14T05:09:19;8.20;99.90
19755;DHT22;10036;47.812;9.274;2023-03-14T05:11:46;8.10;99.90
19755;DHT22;10036;47.812;9.274;2023-03-14T05:14:12;8.20;99.90
19755;DHT22;10036;47.812;9.274;2023-03-14T05:16:39;8.10;99.90
19755;DHT22;10036;47.812;9.274;2023-03-14T05:19:08;8.20;99.90
19755;DHT22;10036;47.812;9.274;2023-03-14T05:21:34;8.20;99.90
19755;DHT22;10036;47.812;9.274;2023-03-14T05:24:01;8.20;99.90
19755;DHT22;10036;47.812;9.274;2023-03-14T05:26:28;8.10;99.90
19755;DHT22;10036;47.812;9.274;2023-03-14T05:28:55;8.10;99.90
19755;DHT22;10036;47.812;9.274;2023-03-14T05:31:22;8.00;99.90
19755;DHT22;10036;47.812;9.274;2023-03-14T05:33:49;8.00;99.90
19755;DHT22;10036;47.812;9.274;2023-03-14T05:36:17;8.00;99.90
19755;DHT22;10036;47.812;9.274;2023-03-14T05:38:44;8.00;99.90
19755;DHT22;10036;47.812;9.274;2023-03-14T05:41:11;7.90;99.90
19755;DHT22;10036;47.812;9.274;2023-03-14T05:43:38;7.90;99.90
19755;DHT22;10036;47.812;9.274;2023-03-14T05:46:06;7.90;99.90
19755;DHT22;10036;47.812;9.274;2023-03-14T05:48:32;7.90;99.90
19755;DHT22;10036;47.812;9.274;2023-03-14T05:50:59;7.90;99.90
19755;DHT22;10036;47.812;9.274;2023-03-14T05:53:27;7.90;99.90
19755;DHT22;10036;47.812;9.274;2023-03-14T05:55:56;7.90;99.90
19755;DHT22;10036;47.812;9.274;2023-03-14T05:58:23;7.90;99.90
19755;DHT22;10036;47.812;9.274;2023-03-14T06:00:50;7.90;99.90
19755;DHT22;10036;47.812;9.274;2023-03-14T06:03:17;7.90;99.90
19755;DHT22;10036;47.812;9.274;2023-03-14T06:05:44;7.90;99.90
19755;DHT22;10036;47.812;9.274;2023-03-14T06:08:11;7.90;99.90
19755;DHT22;10036;47.812;9.274;2023-03-14T06:10:39;7.90;99.90
19755;DHT22;10036;47.812;9.274;2023-03-14T06:13:07;7.90;99.90
19755;DHT22;10036;47.812;9.274;2023-03-14T06:15:34;8.00;99.90
19755;DHT22;10036;47.812;9.274;2023-03-14T06:18:01;8.00;99.90
19755;DHT22;10036;47.812;9.274;2023-03-14T06:20:28;8.00;99.90
19755;DHT22;10036;47.812;9.274;2023-03-14T06:22:55;7.90;99.90
19755;DHT22;10036;47.812;9.274;2023-03-14T06:25:22;8.00;99.90
19755;DHT22;10036;47.812;9.274;2023-03-14T06:27:50;8.00;99.90
19755;DHT22;10036;47.812;9.274;2023-03-14T06:30:17;8.00;99.90
19755;DHT22;10036;47.812;9.274;2023-03-14T06:32:44;8.10;99.90
19755;DHT22;10036;47.812;9.274;2023-03-14T06:35:10;8.00;99.90
19755;DHT22;10036;47.812;9.274;2023-03-14T06:37:37;8.00;99.90
19755;DHT22;10036;47.812;9.274;2023-03-14T06:40:05;8.00;99.90
19755;DHT22;10036;47.812;9.274;2023-03-14T06:42:33;8.00;99.90
19755;DHT22;10036;47.812;9.274;2023-03-14T06:45:01;8.00;99.90
19755;DHT22;10036;47.812;9.274;2023-03-14T06:47:28;8.00;99.90
19755;DHT22;10036;47.812;9.274;2023-03-14T06:49:55;8.10;99.90
19755;DHT22;10036;47.812;9.274;2023-03-14T06:52:22;8.10;99.90
19755;DHT22;10036;47.812;9.274;2023-03-14T06:54:49;8.10;99.90
19755;DHT22;10036;47.812;9.274;2023-03-14T06:57:16;8.20;99.90
19755;DHT22;10036;47.812;9.274;2023-03-14T06:59:42;8.20;99.90
19755;DHT22;10036;47.812;9.274;2023-03-14T07:02:12;8.20;99.90
19755;DHT22;10036;47.812;9.274;2023-03-14T07:04:38;8.20;99.90
19755;DHT22;10036;47.812;9.274;2023-03-14T07:07:06;8.30;99.90
19755;DHT22;10036;47.812;9.274;2023-03-14T07:09:33;8.30;99.90
19755;DHT22;10036;47.812;9.274;2023-03-14T07:12:00;8.30;99.90
19755;DHT22;10036;47.812;9.274;2023-03-14T07:14:28;8.40;99.90
19755;DHT22;10036;47.812;9.274;2023-03-14T07:16:55;8.40;99.90
19755;DHT22;10036;47.812;9.274;2023-03-14T07:19:24;8.30;99.90
19755;DHT22;10036;47.812;9.274;2023-03-14T07:21:51;8.40;99.90
19755;DHT22;10036;47.812;9.274;2023-03-14T07:24:17;8.40;99.90
19755;DHT22;10036;47.812;9.274;2023-03-14T07:26:44;8.40;99.90
19755;DHT22;10036;47.812;9.274;2023-03-14T07:29:11;8.40;99.90
19755;DHT22;10036;47.812;9.274;2023-03-14T07:31:38;8.40;99.90
19755;DHT22;10036;47.812;9.274;2023-03-14T07:34:05;8.50;99.90
19755;DHT22;10036;47.812;9.274;2023-03-14T07:36:33;8.60;99.90
19755;DHT22;10036;47.812;9.274;2023-03-14T07:39:00;8.60;99.90
19755;DHT22;10036;47.812;9.274;2023-03-14T07:41:27;8.70;99.90
19755;DHT22;10036;47.812;9.274;2023-03-14T07:43:54;8.70;99.90
19755;DHT22;10036;47.812;9.274;2023-03-14T07:46:20;8.80;99.90
19755;DHT22;10036;47.812;9.274;2023-03-14T07:48:47;8.80;99.90
19755;DHT22;10036;47.812;9.274;2023-03-14T07:51:14;8.90;99.90
19755;DHT22;10036;47.812;9.274;2023-03-14T07:53:42;9.00;99.90
19755;DHT22;10036;47.812;9.274;2023-03-14T07:56:09;8.90;99.90
19755;DHT22;10036;47.812;9.274;2023-03-14T07:58:36;8.90;99.90
19755;DHT22;10036;47.812;9.274;2023-03-14T08:01:03;9.00;99.90
19755;DHT22;10036;47.812;9.274;2023-03-14T08:03:30;9.00;99.90
19755;DHT22;10036;47.812;9.274;2023-03-14T08:05:57;9.00;99.90
19755;DHT22;10036;47.812;9.274;2023-03-14T08:08:24;9.00;99.90
19755;DHT22;10036;47.812;9.274;2023-03-14T08:10:52;9.10;99.90
19755;DHT22;10036;47.812;9.274;2023-03-14T08:13:19;9.20;99.90
19755;DHT22;10036;47.812;9.274;2023-03-14T08:15:48;9.20;99.90
19755;DHT22;10036;47.812;9.274;2023-03-14T08:18:16;9.30;99.90
19755;DHT22;10036;47.812;9.274;2023-03-14T08:20:43;9.30;99.90
19755;DHT22;10036;47.812;9.274;2023-03-14T08:23:10;9.40;99.90
19755;DHT22;10036;47.812;9.274;2023-03-14T08:25:37;9.50;99.90
19755;DHT22;10036;47.812;9.274;2023-03-14T08:28:06;9.50;99.90
19755;DHT22;10036;47.812;9.274;2023-03-14T08:30:33;9.50;99.90
19755;DHT22;10036;47.812;9.274;2023-03-14T08:33:00;9.60;99.90
19755;DHT22;10036;47.812;9.274;2023-03-14T08:35:27;9.70;99.90
19755;DHT22;10036;47.812;9.274;2023-03-14T08:37:54;9.80;99.90
19755;DHT22;10036;47.812;9.274;2023-03-14T08:40:21;9.90;99.90
19755;DHT22;10036;47.812;9.274;2023-03-14T08:42:48;10.00;99.90
19755;DHT22;10036;47.812;9.274;2023-03-14T08:45:16;10.10;99.90
19755;DHT22;10036;47.812;9.274;2023-03-14T08:47:43;10.20;99.90
19755;DHT22;10036;47.812;9.274;2023-03-14T08:50:11;10.30;99.90
19755;DHT22;10036;47.812;9.274;2023-03-14T08:52:38;10.30;99.90
19755;DHT22;10036;47.812;9.274;2023-03-14T08:55:07;10.40;99.90
19755;DHT22;10036;47.812;9.274;2023-03-14T08:57:34;10.40;99.90
19755;DHT22;10036;47.812;9.274;2023-03-14T09:00:03;10.50;99.90
19755;DHT22;10036;47.812;9.274;2023-03-14T09:02:35;10.50;99.90
19755;DHT22;10036;47.812;9.274;2023-03-14T09:05:03;10.60;99.90
19755;DHT22;10036;47.812;9.274;2023-03-14T09:07:30;10.70;99.90
19755;DHT22;10036;47.812;9.274;2023-03-14T09:09:56;10.90;99.90
19755;DHT22;10036;47.812;9.274;2023-03-14T09:12:23;11.10;99.90
19755;DHT22;10036;47.812;9.274;2023-03-14T09:14:50;11.30;99.90
19755;DHT22;10036;47.812;9.274;2023-03-14T09:17:17;11.40;99.90
19755;DHT22;10036;47.812;9.274;2023-03-14T09:19:45;11.40;99.90
19755;DHT22;10036;47.812;9.274;2023-03-14T09:22:12;11.40;99.90
19755;DHT22;10036;47.812;9.274;2023-03-14T09:24:40;11.30;99.90
19755;DHT22;10036;47.812;9.274;2023-03-14T09:27:07;11.40;99.90
19755;DHT22;10036;47.812;9.274;2023-03-14T09:29:34;11.40;99.90
19755;DHT22;10036;47.812;9.274;2023-03-14T09:32:01;11.40;99.90
19755;DHT22;10036;47.812;9.274;2023-03-14T09:34:28;11.50;99.90
19755;DHT22;10036;47.812;9.274;2023-03-14T09:36:57;11.60;99.90
19755;DHT22;10036;47.812;9.274;2023-03-14T09:39:24;11.60;99.90
19755;DHT22;10036;47.812;9.274;2023-03-14T09:41:52;11.70;99.90
19755;DHT22;10036;47.812;9.274;2023-03-14T09:44:25;11.50;99.90
19755;DHT22;10036;47.812;9.274;2023-03-14T09:46:55;11.50;99.90
19755;DHT22;10036;47.812;9.274;2023-03-14T09:49:26;11.50;99.90
19755;DHT22;10036;47.812;9.274;2023-03-14T09:51:57;11.60;99.90
19755;DHT22;10036;47.812;9.274;2023-03-14T09:54:30;11.40;99.90
19755;DHT22;10036;47.812;9.274;2023-03-14T09:56:57;11.40;99.90
19755;DHT22;10036;47.812;9.274;2023-03-14T09:59:25;11.30;99.90
19755;DHT22;10036;47.812;9.274;2023-03-14T10:01:53;11.10;99.90
19755;DHT22;10036;47.812;9.274;2023-03-14T10:04:22;11.10;99.90
19755;DHT22;10036;47.812;9.274;2023-03-14T10:06:49;11.10;99.90
19755;DHT22;10036;47.812;9.274;2023-03-14T10:09:20;11.20;99.90
19755;DHT22;10036;47.812;9.274;2023-03-14T10:11:53;11.10;99.90
19755;DHT22;10036;47.812;9.274;2023-03-14T10:14:32;11.10;99.90
19755;DHT22;10036;47.812;9.274;2023-03-14T10:17:06;11.20;99.90
19755;DHT22;10036;47.812;9.274;2023-03-14T10:19:34;11.20;99.90
19755;DHT22;10036;47.812;9.274;2023-03-14T10:22:02;11.20;99.90
19755;DHT22;10036;47.812;9.274;2023-03-14T10:24:31;11.20;99.90
19755;DHT22;10036;47.812;9.274;2023-03-14T10:27:00;11.20;99.90
19755;DHT22;10036;47.812;9.274;2023-03-14T10:29:28;11.20;99.90
19755;DHT22;10036;47.812;9.274;2023-03-14T10:31:58;11.10;99.90
19755;DHT22;10036;47.812;9.274;2023-03-14T10:34:28;11.10;99.90
19755;DHT22;10036;47.812;9.274;2023-03-14T10:36:57;11.00;99.90
19755;DHT22;10036;47.812;9.274;2023-03-14T10:39:35;10.90;99.90
19755;DHT22;10036;47.812;9.274;2023-03-14T10:42:06;10.90;99.90
19755;DHT22;10036;47.812;9.274;2023-03-14T10:44:39;10.80;99.90
19755;DHT22;10036;47.812;9.274;2023-03-14T10:47:06;10.80;99.90
19755;DHT22;10036;47.812;9.274;2023-03-14T10:49:34;10.80;99.90
19755;DHT22;10036;47.812;9.274;2023-03-14T10:52:12;10.80;99.90
19755;DHT22;10036;47.812;9.274;2023-03-14T10:54:41;10.80;99.90
19755;DHT22;10036;47.812;9.274;2023-03-14T10:57:13;10.60;99.90
19755;DHT22;10036;47.812;9.274;2023-03-14T10:59:41;10.60;99.90
19755;DHT22;10036;47.812;9.274;2023-03-14T11:02:21;10.50;99.90
19755;DHT22;10036;47.812;9.274;2023-03-14T11:04:59;10.50;99.90
19755;DHT22;10036;47.812;9.274;2023-03-14T11:07:35;10.40;99.90
19755;DHT22;10036;47.812;9.274;2023-03-14T11:10:12;10.30;99.90
19755;DHT22;10036;47.812;9.274;2023-03-14T11:12:49;10.20;99.90
19755;DHT22;10036;47.812;9.274;2023-03-14T11:15:20;10.10;99.90
19755;DHT22;10036;47.812;9.274;2023-03-14T11:18:02;10.00;99.90
19755;DHT22;10036;47.812;9.274;2023-03-14T11:20:40;10.00;99.90
19755;DHT22;10036;47.812;9.274;2023-03-14T11:23:12;10.00;99.90
19755;DHT22;10036;47.812;9.274;2023-03-14T11:25:45;10.00;99.90
19755;DHT22;10036;47.812;9.274;2023-03-14T11:28:18;10.00;99.90
19755;DHT22;10036;47.812;9.274;2023-03-14T11:30:51;9.90;99.90
19755;DHT22;10036;47.812;9.274;2023-03-14T11:33:22;10.00;99.90
19755;DHT22;10036;47.812;9.274;2023-03-14T11:35:55;9.90;99.90
19755;DHT22;10036;47.812;9.274;2023-03-14T11:38:30;9.90;99.90
19755;DHT22;10036;47.812;9.274;2023-03-14T11:41:00;9.90;99.90
19755;DHT22;10036;47.812;9.274;2023-03-14T11:43:29;9.90;99.90
19755;DHT22;10036;47.812;9.274;2023-03-14T11:46:03;9.80;99.90
19755;DHT22;10036;47.812;9.274;2023-03-14T11:48:37;9.90;99.90
19755;DHT22;10036;47.812;9.274;2023-03-14T11:51:09;9.80;99.90
19755;DHT22;10036;47.812;9.274;2023-03-14T11:53:47;9.80;99.90
19755;DHT22;10036;47.812;9.274;2023-03-14T11:56:19;9.70;99.90
19755;DHT22;10036;47.812;9.274;2023-03-14T11:58:55;9.70;99.90
19755;DHT22;10036;47.812;9.274;2023-03-14T12:01:29;9.50;99.90
19755;DHT22;10036;47.812;9.274;2023-03-14T12:04:03;9.40;99.90
19755;DHT22;10036;47.812;9.274;2023-03-14T12:06:37;9.40;99.90
19755;DHT22;10036;47.812;9.274;2023-03-14T12:09:08;9.30;99.90
19755;DHT22;10036;47.812;9.274;2023-03-14T12:11:41;9.30;99.90
19755;DHT22;10036;47.812;9.274;2023-03-14T12:14:21;9.20;99.90
19755;DHT22;10036;47.812;9.274;2023-03-14T12:16:53;9.10;99.90
19755;DHT22;10036;47.812;9.274;2023-03-14T12:19:34;9.10;99.90
19755;DHT22;10036;47.812;9.274;2023-03-14T12:25:13;8.80;99.90
19755;DHT22;10036;47.812;9.274;2023-03-14T12:30:37;8.60;99.90
19755;DHT22;10036;47.812;9.274;2023-03-14T12:33:26;8.40;99.90
19755;DHT22;10036;47.812;9.274;2023-03-14T12:35:58;8.40;99.90
19755;DHT22;10036;47.812;9.274;2023-03-14T12:38:32;8.20;99.90
19755;DHT22;10036;47.812;9.274;2023-03-14T12:41:13;8.20;99.90
19755;DHT22;10036;47.812;9.274;2023-03-14T12:43:42;8.10;99.90
19755;DHT22;10036;47.812;9.274;2023-03-14T12:46:19;8.10;99.90
19755;DHT22;10036;47.812;9.274;2023-03-14T12:48:48;8.20;99.90
19755;DHT22;10036;47.812;9.274;2023-03-14T12:51:17;8.20;99.90
19755;DHT22;10036;47.812;9.274;2023-03-14T12:56:54;8.10;99.90
19755;DHT22;10036;47.812;9.274;2023-03-14T12:59:33;8.10;99.90
19755;DHT22;10036;47.812;9.274;2023-03-14T13:02:10;8.00;99.90
19755;DHT22;10036;47.812;9.274;2023-03-14T13:04:45;8.10;99.90
19755;DHT22;10036;47.812;9.274;2023-03-14T13:07:31;8.10;99.90
19755;DHT22;10036;47.812;9.274;2023-03-14T13:10:16;8.20;99.90
19755;DHT22;10036;47.812;9.274;2023-03-14T13:12:49;8.20;99.90
19755;DHT22;10036;47.812;9.274;2023-03-14T13:15:24;8.20;99.90
19755;DHT22;10036;47.812;9.274;2023-03-14T13:17:55;8.20;99.90
19755;DHT22;10036;47.812;9.274;2023-03-14T13:20:28;8.20;99.90
19755;DHT22;10036;47.812;9.274;2023-03-14T13:22:55;8.20;99.90
19755;DHT22;10036;47.812;9.274;2023-03-14T13:25:22;8.10;99.90
19755;DHT22;10036;47.812;9.274;2023-03-14T13:27:52;8.10;99.90
19755;DHT22;10036;47.812;9.274;2023-03-14T13:30:24;8.00;99.90
19755;DHT22;10036;47.812;9.274;2023-03-14T13:32:53;7.80;99.90
19755;DHT22;10036;47.812;9.274;2023-03-14T13:35:24;7.80;99.90
19755;DHT22;10036;47.812;9.274;2023-03-14T13:37:56;7.60;99.90
19755;DHT22;10036;47.812;9.274;2023-03-14T13:40:27;7.40;99.90
19755;DHT22;10036;47.812;9.274;2023-03-14T13:43:17;7.20;99.90
19755;DHT22;10036;47.812;9.274;2023-03-14T13:45:49;7.20;99.90
19755;DHT22;10036;47.812;9.274;2023-03-14T13:48:17;7.30;99.90
19755;DHT22;10036;47.812;9.274;2023-03-14T13:50:51;7.30;99.90
19755;DHT22;10036;47.812;9.274;2023-03-14T13:53:18;7.40;99.90
19755;DHT22;10036;47.812;9.274;2023-03-14T13:55:45;7.40;99.90
19755;DHT22;10036;47.812;9.274;2023-03-14T13:58:20;7.50;99.90
19755;DHT22;10036;47.812;9.274;2023-03-14T14:01:05;7.50;99.90
19755;DHT22;10036;47.812;9.274;2023-03-14T14:03:34;7.70;99.90
19755;DHT22;10036;47.812;9.274;2023-03-14T14:06:19;7.90;99.90
19755;DHT22;10036;47.812;9.274;2023-03-14T14:08:48;8.10;99.90
19755;DHT22;10036;47.812;9.274;2023-03-14T14:11:22;8.30;99.90
19755;DHT22;10036;47.812;9.274;2023-03-14T14:13:52;8.40;99.90
19755;DHT22;10036;47.812;9.274;2023-03-14T14:16:23;8.40;99.90
19755;DHT22;10036;47.812;9.274;2023-03-14T14:18:51;8.40;99.90
19755;DHT22;10036;47.812;9.274;2023-03-14T14:21:19;8.40;99.90
19755;DHT22;10036;47.812;9.274;2023-03-14T14:23:46;8.40;99.90
19755;DHT22;10036;47.812;9.274;2023-03-14T14:26:16;8.40;99.90
19755;DHT22;10036;47.812;9.274;2023-03-14T14:28:43;8.60;99.90
19755;DHT22;10036;47.812;9.274;2023-03-14T14:31:21;8.80;99.90
19755;DHT22;10036;47.812;9.274;2023-03-14T14:33:55;9.00;99.90
19755;DHT22;10036;47.812;9.274;2023-03-14T14:36:25;9.00;99.90
19755;DHT22;10036;47.812;9.274;2023-03-14T14:38:57;9.00;99.90
19755;DHT22;10036;47.812;9.274;2023-03-14T14:41:27;8.90;99.90
19755;DHT22;10036;47.812;9.274;2023-03-14T14:43:56;9.00;99.90
19755;DHT22;10036;47.812;9.274;2023-03-14T14:46:27;8.90;99.90
19755;DHT22;10036;47.812;9.274;2023-03-14T14:48:57;8.70;99.90
19755;DHT22;10036;47.812;9.274;2023-03-14T14:51:26;8.70;99.90
19755;DHT22;10036;47.812;9.274;2023-03-14T14:54:04;8.70;99.90
19755;DHT22;10036;47.812;9.274;2023-03-14T14:56:36;8.70;99.90
19755;DHT22;10036;47.812;9.274;2023-03-14T14:59:05;8.80;99.90
19755;DHT22;10036;47.812;9.274;2023-03-14T15:01:36;8.90;99.90
19755;DHT22;10036;47.812;9.274;2023-03-14T15:04:09;8.80;99.90
19755;DHT22;10036;47.812;9.274;2023-03-14T15:06:39;8.70;99.90
19755;DHT22;10036;47.812;9.274;2023-03-14T15:09:08;8.60;99.90
19755;DHT22;10036;47.812;9.274;2023-03-14T15:11:35;8.40;99.90
19755;DHT22;10036;47.812;9.274;2023-03-14T15:14:02;8.40;99.90
19755;DHT22;10036;47.812;9.274;2023-03-14T15:16:31;8.40;99.90
19755;DHT22;10036;47.812;9.274;2023-03-14T15:19:05;8.30;99.90
19755;DHT22;10036;47.812;9.274;2023-03-14T15:21:35;8.30;99.90
19755;DHT22;10036;47.812;9.274;2023-03-14T15:24:04;8.30;99.90
19755;DHT22;10036;47.812;9.274;2023-03-14T15:26:31;8.30;99.90
19755;DHT22;10036;47.812;9.274;2023-03-14T15:28:58;8.20;99.90
19755;DHT22;10036;47.812;9.274;2023-03-14T15:31:24;8.20;99.90
19755;DHT22;10036;47.812;9.274;2023-03-14T15:33:51;8.10;99.90
19755;DHT22;10036;47.812;9.274;2023-03-14T15:36:24;8.20;99.90
19755;DHT22;10036;47.812;9.274;2023-03-14T15:38:53;8.20;99.90
19755;DHT22;10036;47.812;9.274;2023-03-14T15:41:20;8.20;99.90
19755;DHT22;10036;47.812;9.274;2023-03-14T15:43:47;8.30;99.90
19755;DHT22;10036;47.812;9.274;2023-03-14T15:46:15;8.40;99.90
19755;DHT22;10036;47.812;9.274;2023-03-14T15:48:42;8.50;99.90
19755;DHT22;10036;47.812;9.274;2023-03-14T15:51:09;8.40;99.90
19755;DHT22;10036;47.812;9.274;2023-03-14T15:53:38;8.30;99.90
19755;DHT22;10036;47.812;9.274;2023-03-14T15:56:06;8.40;99.90
19755;DHT22;10036;47.812;9.274;2023-03-14T15:58:34;8.30;99.90
19755;DHT22;10036;47.812;9.274;2023-03-14T16:01:01;8.20;99.90
19755;DHT22;10036;47.812;9.274;2023-03-14T16:03:29;8.20;99.90